sensor_id;sensor_type;location;lat;lon;timestamp;temperature;humidity
39493;DHT22;25176;51.060;3.720;2023-09-18T00:01:11;22.10;99.90
39493;DHT22;25176;51.060;3.720;2023-09-18T00:03:37;22.10;99.90
39493;DHT22;25176;51.060;3.720;2023-09-18T00:06:02;22.10;99.90
39493;DHT22;25176;51.060;3.720;2023-09-18T00:08:28;22.20;99.90
39493;DHT22;25176;51.060;3.720;2023-09-18T00:10:54;22.30;99.90
39493;DHT22;25176;51.060;3.720;2023-09-18T00:13:20;22.30;99.90
39493;DHT22;25176;51.060;3.720;2023-09-18T00:15:45;22.30;99.90
39493;DHT22;25176;51.060;3.720;2023-09-18T00:18:13;22.40;99.90
39493;DHT22;25176;51.060;3.720;2023-09-18T00:20:38;22.30;99.90
39493;DHT22;25176;51.060;3.720;2023-09-18T00:23:04;22.30;99.90
39493;DHT22;25176;51.060;3.720;2023-09-18T00:25:30;22.30;99.90
39493;DHT22;25176;51.060;3.720;2023-09-18T00:27:56;22.30;99.90
39493;DHT22;25176;51.060;3.720;2023-09-18T00:30:22;22.30;99.90
39493;DHT22;25176;51.060;3.720;2023-09-18T00:32:47;22.30;99.90
39493;DHT22;25176;51.060;3.720;2023-09-18T00:35:15;22.20;99.90
39493;DHT22;25176;51.060;3.720;2023-09-18T00:37:40;22.10;99.90
39493;DHT22;25176;51.060;3.720;2023-09-18T00:40:06;22.10;99.90
39493;DHT22;25176;51.060;3.720;2023-09-18T00:42:32;22.10;99.90
39493;DHT22;25176;51.060;3.720;2023-09-18T00:45:00;22.10;99.90
39493;DHT22;25176;51.060;3.720;2023-09-18T00:47:26;22.20;99.90
39493;DHT22;25176;51.060;3.720;2023-09-18T00:49:51;22.20;99.90
39493;DHT22;25176;51.060;3.720;2023-09-18T00:52:17;22.10;99.90
39493;DHT22;25176;51.060;3.720;2023-09-18T00:54:44;22.20;99.90
39493;DHT22;25176;51.060;3.720;2023-09-18T00:57:10;22.30;99.90
39493;DHT22;25176;51.060;3.720;2023-09-18T00:59:36;22.30;99.90
39493;DHT22;25176;51.060;3.720;2023-09-18T01:02:02;22.40;99.90
39493;DHT22;25176;51.060;3.720;2023-09-18T01:04:27;22.40;99.90
39493;DHT22;25176;51.060;3.720;2023-09-18T01:06:54;22.30;99.90
39493;DHT22;25176;51.060;3.720;2023-09-18T01:09:22;22.40;99.90
39493;DHT22;25176;51.060;3.720;2023-09-18T01:11:50;22.40;99.90
39493;DHT22;25176;51.060;3.720;2023-09-18T01:14:30;22.40;99.90
39493;DHT22;25176;51.060;3.720;2023-09-18T01:16:57;22.30;99.90
39493;DHT22;25176;51.060;3.720;2023-09-18T01:22:10;22.40;99.90
39493;DHT22;25176;51.060;3.720;2023-09-18T01:24:36;22.50;99.90
39493;DHT22;25176;51.060;3.720;2023-09-18T01:27:02;22.50;99.90
39493;DHT22;25176;51.060;3.720;2023-09-18T01:29:29;22.50;99.90
39493;DHT22;25176;51.060;3.720;2023-09-18T01:31:54;22.40;99.90
39493;DHT22;25176;51.060;3.720;2023-09-18T01:34:21;22.40;99.90
39493;DHT22;25176;51.060;3.720;2023-09-18T01:36:49;22.40;99.90
39493;DHT22;25176;51.060;3.720;2023-09-18T01:39:15;22.40;99.90
39493;DHT22;25176;51.060;3.720;2023-09-18T01:41:41;22.30;99.90
39493;DHT22;25176;51.060;3.720;2023-09-18T01:44:06;22.30;99.90
39493;DHT22;25176;51.060;3.720;2023-09-18T01:46:32;22.30;99.90
39493;DHT22;25176;51.060;3.720;2023-09-18T01:49:01;22.30;99.90
39493;DHT22;25176;51.060;3.720;2023-09-18T01:51:27;22.20;99.90
39493;DHT22;25176;51.060;3.720;2023-09-18T01:53:53;22.10;99.90
39493;DHT22;25176;51.060;3.720;2023-09-18T01:56:19;21.90;99.90
39493;DHT22;25176;51.060;3.720;2023-09-18T01:58:44;21.90;99.90
39493;DHT22;25176;51.060;3.720;2023-09-18T02:01:10;22.00;99.90
39493;DHT22;25176;51.060;3.720;2023-09-18T02:03:35;22.10;99.90
39493;DHT22;25176;51.060;3.720;2023-09-18T02:06:01;22.10;99.90
39493;DHT22;25176;51.060;3.720;2023-09-18T02:08:26;22.20;99.90
39493;DHT22;25176;51.060;3.720;2023-09-18T02:10:52;22.10;99.90
39493;DHT22;25176;51.060;3.720;2023-09-18T02:13:17;21.70;99.90
39493;DHT22;25176;51.060;3.720;2023-09-18T02:15:43;21.60;99.90
39493;DHT22;25176;51.060;3.720;2023-09-18T02:18:09;21.40;99.90
39493;DHT22;25176;51.060;3.720;2023-09-18T02:20:41;21.40;99.90
39493;DHT22;25176;51.060;3.720;2023-09-18T02:23:07;21.40;99.90
39493;DHT22;25176;51.060;3.720;2023-09-18T02:25:32;21.30;99.90
39493;DHT22;25176;51.060;3.720;2023-09-18T02:27:58;21.30;99.90
39493;DHT22;25176;51.060;3.720;2023-09-18T02:30:23;21.30;99.90
39493;DHT22;25176;51.060;3.720;2023-09-18T02:32:49;21.40;99.90
39493;DHT22;25176;51.060;3.720;2023-09-18T02:35:14;21.40;99.90
39493;DHT22;25176;51.060;3.720;2023-09-18T02:37:40;21.50;99.90
39493;DHT22;25176;51.060;3.720;2023-09-18T02:40:05;21.50;99.90
39493;DHT22;25176;51.060;3.720;2023-09-18T02:42:31;21.60;99.90
39493;DHT22;25176;51.060;3.720;2023-09-18T02:44:56;21.60;99.90
39493;DHT22;25176;51.060;3.720;2023-09-18T02:47:22;21.70;99.90
39493;DHT22;25176;51.060;3.720;2023-09-18T02:49:47;21.80;99.90
39493;DHT22;25176;51.060;3.720;2023-09-18T02:52:13;21.70;99.90
39493;DHT22;25176;51.060;3.720;2023-09-18T02:54:38;21.70;99.90
39493;DHT22;25176;51.060;3.720;2023-09-18T02:57:04;21.70;99.90
39493;DHT22;25176;51.060;3.720;2023-09-18T02:59:29;21.60;99.90
39493;DHT22;25176;51.060;3.720;2023-09-18T03:01:56;21.60;99.90
39493;DHT22;25176;51.060;3.720;2023-09-18T03:04:21;21.70;99.90
39493;DHT22;25176;51.060;3.720;2023-09-18T03:06:47;21.70;99.90
39493;DHT22;25176;51.060;3.720;2023-09-18T03:09:12;21.80;99.90
39493;DHT22;25176;51.060;3.720;2023-09-18T03:11:38;21.80;99.90
39493;DHT22;25176;51.060;3.720;2023-09-18T03:14:03;21.80;99.90
39493;DHT22;25176;51.060;3.720;2023-09-18T03:16:29;21.70;99.90
39493;DHT22;25176;51.060;3.720;2023-09-18T03:22:01;21.70;99.90
39493;DHT22;25176;51.060;3.720;2023-09-18T03:24:27;21.60;99.90
39493;DHT22;25176;51.060;3.720;2023-09-18T03:26:52;21.60;99.90
39493;DHT22;25176;51.060;3.720;2023-09-18T03:29:17;21.60;99.90
39493;DHT22;25176;51.060;3.720;2023-09-18T03:31:43;21.70;99.90
39493;DHT22;25176;51.060;3.720;2023-09-18T03:34:09;21.70;99.90
39493;DHT22;25176;51.060;3.720;2023-09-18T03:36:34;21.50;99.90
39493;DHT22;25176;51.060;3.720;2023-09-18T03:39:01;21.40;99.90
39493;DHT22;25176;51.060;3.720;2023-09-18T03:41:27;21.40;99.90
39493;DHT22;25176;51.060;3.720;2023-09-18T03:43:52;21.50;99.90
39493;DHT22;25176;51.060;3.720;2023-09-18T03:46:18;21.50;99.90
39493;DHT22;25176;51.060;3.720;2023-09-18T03:48:43;21.50;99.90
39493;DHT22;25176;51.060;3.720;2023-09-18T03:51:09;21.40;99.90
39493;DHT22;25176;51.060;3.720;2023-09-18T03:53:35;21.30;99.90
39493;DHT22;25176;51.060;3.720;2023-09-18T03:56:00;21.30;99.90
39493;DHT22;25176;51.060;3.720;2023-09-18T03:58:26;21.40;99.90
39493;DHT22;25176;51.060;3.720;2023-09-18T04:00:52;21.40;99.90
39493;DHT22;25176;51.060;3.720;2023-09-18T04:03:17;21.40;99.90
39493;DHT22;25176;51.060;3.720;2023-09-18T04:05:43;21.30;99.90
39493;DHT22;25176;51.060;3.720;2023-09-18T04:08:08;21.30;99.90
39493;DHT22;25176;51.060;3.720;2023-09-18T04:10:34;21.30;99.90
39493;DHT22;25176;51.060;3.720;2023-09-18T04:13:00;21.20;99.90
39493;DHT22;25176;51.060;3.720;2023-09-18T04:15:25;21.10;99.90
39493;DHT22;25176;51.060;3.720;2023-09-18T04:17:52;21.00;99.90
39493;DHT22;25176;51.060;3.720;2023-09-18T04:20:18;21.00;99.90
39493;DHT22;25176;51.060;3.720;2023-09-18T04:22:45;21.00;99.90
39493;DHT22;25176;51.060;3.720;2023-09-18T04:25:11;21.00;99.90
39493;DHT22;25176;51.060;3.720;2023-09-18T04:27:36;21.00;99.90
39493;DHT22;25176;51.060;3.720;2023-09-18T04:30:02;20.90;99.90
39493;DHT22;25176;51.060;3.720;2023-09-18T04:32:28;20.80;99.90
39493;DHT22;25176;51.060;3.720;2023-09-18T04:34:54;20.80;99.90
39493;DHT22;25176;51.060;3.720;2023-09-18T04:37:20;20.80;99.90
39493;DHT22;25176;51.060;3.720;2023-09-18T04:39:45;20.80;99.90
39493;DHT22;25176;51.060;3.720;2023-09-18T04:42:11;20.70;99.90
39493;DHT22;25176;51.060;3.720;2023-09-18T04:44:36;20.70;99.90
39493;DHT22;25176;51.060;3.720;2023-09-18T04:47:02;20.70;99.90
39493;DHT22;25176;51.060;3.720;2023-09-18T04:49:28;20.80;99.90
39493;DHT22;25176;51.060;3.720;2023-09-18T04:51:54;20.70;99.90
39493;DHT22;25176;51.060;3.720;2023-09-18T04:54:20;20.70;99.90
39493;DHT22;25176;51.060;3.720;2023-09-18T04:56:45;20.70;99.90
39493;DHT22;25176;51.060;3.720;2023-09-18T04:59:11;20.70;99.90
39493;DHT22;25176;51.060;3.720;2023-09-18T05:01:36;20.80;99.90
39493;DHT22;25176;51.060;3.720;2023-09-18T05:04:02;20.70;99.90
39493;DHT22;25176;51.060;3.720;2023-09-18T05:06:28;20.70;99.90
39493;DHT22;25176;51.060;3.720;2023-09-18T05:08:54;20.60;99.90
39493;DHT22;25176;51.060;3.720;2023-09-18T05:11:19;20.60;99.90
39493;DHT22;25176;51.060;3.720;2023-09-18T05:13:45;20.50;99.90
39493;DHT22;25176;51.060;3.720;2023-09-18T05:16:11;20.50;99.90
39493;DHT22;25176;51.060;3.720;2023-09-18T05:18:37;20.40;99.90
39493;DHT22;25176;51.060;3.720;2023-09-18T05:21:03;20.40;99.90
39493;DHT22;25176;51.060;3.720;2023-09-18T05:23:30;20.20;99.90
39493;DHT22;25176;51.060;3.720;2023-09-18T05:25:55;20.30;99.90
39493;DHT22;25176;51.060;3.720;2023-09-18T05:28:21;20.30;99.90
39493;DHT22;25176;51.060;3.720;2023-09-18T05:30:46;20.20;99.90
39493;DHT22;25176;51.060;3.720;2023-09-18T05:33:12;20.10;99.90
39493;DHT22;25176;51.060;3.720;2023-09-18T05:35:42;20.10;99.90
39493;DHT22;25176;51.060;3.720;2023-09-18T05:38:12;20.10;99.90
39493;DHT22;25176;51.060;3.720;2023-09-18T05:40:43;20.00;99.90
39493;DHT22;25176;51.060;3.720;2023-09-18T05:43:10;20.10;99.90
39493;DHT22;25176;51.060;3.720;2023-09-18T05:45:36;20.10;99.90
39493;DHT22;25176;51.060;3.720;2023-09-18T05:48:01;20.10;99.90
39493;DHT22;25176;51.060;3.720;2023-09-18T05:50:31;20.10;99.90
39493;DHT22;25176;51.060;3.720;2023-09-18T05:52:57;20.00;99.90
39493;DHT22;25176;51.060;3.720;2023-09-18T05:55:32;20.00;99.90
39493;DHT22;25176;51.060;3.720;2023-09-18T05:57:57;20.10;99.90
39493;DHT22;25176;51.060;3.720;2023-09-18T06:00:23;19.90;99.90
39493;DHT22;25176;51.060;3.720;2023-09-18T06:02:52;20.00;99.90
39493;DHT22;25176;51.060;3.720;2023-09-18T06:05:18;19.90;99.90
39493;DHT22;25176;51.060;3.720;2023-09-18T06:07:47;19.90;99.90
39493;DHT22;25176;51.060;3.720;2023-09-18T06:10:14;19.80;99.90
39493;DHT22;25176;51.060;3.720;2023-09-18T06:12:40;19.90;99.90
39493;DHT22;25176;51.060;3.720;2023-09-18T06:15:07;19.90;99.90
39493;DHT22;25176;51.060;3.720;2023-09-18T06:17:36;19.90;99.90
39493;DHT22;25176;51.060;3.720;2023-09-18T06:20:03;19.90;99.90
39493;DHT22;25176;51.060;3.720;2023-09-18T06:22:29;20.00;99.90
39493;DHT22;25176;51.060;3.720;2023-09-18T06:24:55;20.00;99.90
39493;DHT22;25176;51.060;3.720;2023-09-18T06:27:21;20.00;99.90
39493;DHT22;25176;51.060;3.720;2023-09-18T06:29:47;19.90;99.90
39493;DHT22;25176;51.060;3.720;2023-09-18T06:32:13;19.80;99.90
39493;DHT22;25176;51.060;3.720;2023-09-18T06:34:38;19.90;99.90
39493;DHT22;25176;51.060;3.720;2023-09-18T06:37:08;19.80;99.90
39493;DHT22;25176;51.060;3.720;2023-09-18T06:39:36;19.80;99.90
39493;DHT22;25176;51.060;3.720;2023-09-18T06:42:02;19.80;99.90
39493;DHT22;25176;51.060;3.720;2023-09-18T06:44:28;19.80;99.90
39493;DHT22;25176;51.060;3.720;2023-09-18T06:46:54;19.80;99.90
39493;DHT22;25176;51.060;3.720;2023-09-18T06:49:19;19.70;99.90
39493;DHT22;25176;51.060;3.720;2023-09-18T06:51:45;19.70;99.90
39493;DHT22;25176;51.060;3.720;2023-09-18T06:54:10;19.70;99.90
39493;DHT22;25176;51.060;3.720;2023-09-18T06:56:36;19.70;99.90
39493;DHT22;25176;51.060;3.720;2023-09-18T06:59:02;19.70;99.90
39493;DHT22;25176;51.060;3.720;2023-09-18T07:01:28;19.90;99.90
39493;DHT22;25176;51.060;3.720;2023-09-18T07:03:53;20.00;99.90
39493;DHT22;25176;51.060;3.720;2023-09-18T07:06:19;20.10;99.90
39493;DHT22;25176;51.060;3.720;2023-09-18T07:08:46;20.10;99.90
39493;DHT22;25176;51.060;3.720;2023-09-18T07:11:12;20.20;99.90
39493;DHT22;25176;51.060;3.720;2023-09-18T07:13:38;20.30;99.90
39493;DHT22;25176;51.060;3.720;2023-09-18T07:16:03;20.30;99.90
39493;DHT22;25176;51.060;3.720;2023-09-18T07:18:29;20.50;99.90
39493;DHT22;25176;51.060;3.720;2023-09-18T07:20:54;20.70;99.90
39493;DHT22;25176;51.060;3.720;2023-09-18T07:23:20;20.70;99.90
39493;DHT22;25176;51.060;3.720;2023-09-18T07:25:49;20.80;99.90
39493;DHT22;25176;51.060;3.720;2023-09-18T07:28:14;20.90;99.90
39493;DHT22;25176;51.060;3.720;2023-09-18T07:30:46;20.90;99.90
39493;DHT22;25176;51.060;3.720;2023-09-18T07:33:12;20.90;99.90
39493;DHT22;25176;51.060;3.720;2023-09-18T07:35:41;21.00;99.90
39493;DHT22;25176;51.060;3.720;2023-09-18T07:38:07;20.90;99.90
39493;DHT22;25176;51.060;3.720;2023-09-18T07:40:33;21.00;99.90
39493;DHT22;25176;51.060;3.720;2023-09-18T07:42:59;21.10;99.90
39493;DHT22;25176;51.060;3.720;2023-09-18T07:45:26;21.10;99.90
39493;DHT22;25176;51.060;3.720;2023-09-18T07:47:52;21.20;99.90
39493;DHT22;25176;51.060;3.720;2023-09-18T07:50:18;21.30;99.90
39493;DHT22;25176;51.060;3.720;2023-09-18T07:52:44;21.20;99.90
39493;DHT22;25176;51.060;3.720;2023-09-18T07:55:10;21.20;99.90
39493;DHT22;25176;51.060;3.720;2023-09-18T07:57:39;21.10;99.90
39493;DHT22;25176;51.060;3.720;2023-09-18T08:00:05;20.90;99.90
39493;DHT22;25176;51.060;3.720;2023-09-18T08:02:38;20.90;99.90
39493;DHT22;25176;51.060;3.720;2023-09-18T08:05:05;20.80;99.90
39493;DHT22;25176;51.060;3.720;2023-09-18T08:07:31;20.70;99.90
39493;DHT22;25176;51.060;3.720;2023-09-18T08:09:56;20.70;99.90
39493;DHT22;25176;51.060;3.720;2023-09-18T08:12:22;20.70;99.90
39493;DHT22;25176;51.060;3.720;2023-09-18T08:14:48;20.70;99.90
39493;DHT22;25176;51.060;3.720;2023-09-18T08:17:15;20.80;99.90
39493;DHT22;25176;51.060;3.720;2023-09-18T08:19:43;20.90;99.90
39493;DHT22;25176;51.060;3.720;2023-09-18T08:22:09;21.00;99.90
39493;DHT22;25176;51.060;3.720;2023-09-18T08:24:37;21.10;99.90
39493;DHT22;25176;51.060;3.720;2023-09-18T08:27:02;21.50;99.90
39493;DHT22;25176;51.060;3.720;2023-09-18T08:29:28;21.60;99.90
39493;DHT22;25176;51.060;3.720;2023-09-18T08:31:54;21.60;99.90
39493;DHT22;25176;51.060;3.720;2023-09-18T08:34:19;21.20;99.90
39493;DHT22;25176;51.060;3.720;2023-09-18T08:36:45;21.20;99.90
39493;DHT22;25176;51.060;3.720;2023-09-18T08:39:10;21.00;99.90
39493;DHT22;25176;51.060;3.720;2023-09-18T08:41:38;21.00;99.90
39493;DHT22;25176;51.060;3.720;2023-09-18T08:44:03;21.10;99.90
39493;DHT22;25176;51.060;3.720;2023-09-18T08:46:30;21.50;99.90
39493;DHT22;25176;51.060;3.720;2023-09-18T08:48:59;22.90;99.90
39493;DHT22;25176;51.060;3.720;2023-09-18T08:51:25;24.80;98.50
39493;DHT22;25176;51.060;3.720;2023-09-18T08:53:51;26.00;95.50
39493;DHT22;25176;51.060;3.720;2023-09-18T08:56:17;27.40;93.10
39493;DHT22;25176;51.060;3.720;2023-09-18T08:58:43;29.90;89.50
39493;DHT22;25176;51.060;3.720;2023-09-18T09:01:08;29.80;83.60
39493;DHT22;25176;51.060;3.720;2023-09-18T09:03:36;28.60;85.30
39493;DHT22;25176;51.060;3.720;2023-09-18T09:06:02;27.50;87.70
39493;DHT22;25176;51.060;3.720;2023-09-18T09:08:28;27.00;89.20
39493;DHT22;25176;51.060;3.720;2023-09-18T09:10:54;26.70;89.90
39493;DHT22;25176;51.060;3.720;2023-09-18T09:13:23;26.70;90.00
39493;DHT22;25176;51.060;3.720;2023-09-18T09:15:53;26.20;90.80
39493;DHT22;25176;51.060;3.720;2023-09-18T09:18:21;26.10;90.50
39493;DHT22;25176;51.060;3.720;2023-09-18T09:20:58;25.10;91.40
39493;DHT22;25176;51.060;3.720;2023-09-18T09:23:29;25.10;91.60
39493;DHT22;25176;51.060;3.720;2023-09-18T09:26:00;24.80;92.20
39493;DHT22;25176;51.060;3.720;2023-09-18T09:28:37;24.30;93.20
39493;DHT22;25176;51.060;3.720;2023-09-18T09:31:02;24.20;93.60
39493;DHT22;25176;51.060;3.720;2023-09-18T09:33:29;23.50;95.00
39493;DHT22;25176;51.060;3.720;2023-09-18T09:35:58;23.20;95.70
39493;DHT22;25176;51.060;3.720;2023-09-18T09:38:30;23.10;96.20
39493;DHT22;25176;51.060;3.720;2023-09-18T09:40:59;22.80;97.00
39493;DHT22;25176;51.060;3.720;2023-09-18T09:43:25;22.70;97.40
39493;DHT22;25176;51.060;3.720;2023-09-18T09:45:56;22.50;98.00
39493;DHT22;25176;51.060;3.720;2023-09-18T09:48:23;22.50;98.20
39493;DHT22;25176;51.060;3.720;2023-09-18T09:50:51;22.30;98.70
39493;DHT22;25176;51.060;3.720;2023-09-18T09:53:17;22.20;98.80
39493;DHT22;25176;51.060;3.720;2023-09-18T09:55:51;22.20;98.90
39493;DHT22;25176;51.060;3.720;2023-09-18T10:01:23;22.20;98.90
39493;DHT22;25176;51.060;3.720;2023-09-18T10:03:49;22.20;99.40
39493;DHT22;25176;51.060;3.720;2023-09-18T10:06:19;22.50;99.00
39493;DHT22;25176;51.060;3.720;2023-09-18T10:08:46;22.80;98.60
39493;DHT22;25176;51.060;3.720;2023-09-18T10:11:12;22.90;98.40
39493;DHT22;25176;51.060;3.720;2023-09-18T10:13:46;23.70;97.20
39493;DHT22;25176;51.060;3.720;2023-09-18T10:16:16;23.80;96.60
39493;DHT22;25176;51.060;3.720;2023-09-18T10:18:52;23.70;96.60
39493;DHT22;25176;51.060;3.720;2023-09-18T10:26:32;23.40;97.20
39493;DHT22;25176;51.060;3.720;2023-09-18T10:28:58;23.90;96.20
39493;DHT22;25176;51.060;3.720;2023-09-18T10:31:28;23.70;96.00
39493;DHT22;25176;51.060;3.720;2023-09-18T10:33:55;23.50;96.10
39493;DHT22;25176;51.060;3.720;2023-09-18T10:36:21;23.40;96.50
39493;DHT22;25176;51.060;3.720;2023-09-18T10:38:47;23.30;96.70
39493;DHT22;25176;51.060;3.720;2023-09-18T10:41:17;23.30;96.90
39493;DHT22;25176;51.060;3.720;2023-09-18T10:43:45;23.20;96.70
39493;DHT22;25176;51.060;3.720;2023-09-18T10:46:11;23.10;96.80
39493;DHT22;25176;51.060;3.720;2023-09-18T10:48:43;23.00;97.30
39493;DHT22;25176;51.060;3.720;2023-09-18T10:51:12;23.00;97.80
39493;DHT22;25176;51.060;3.720;2023-09-18T10:53:39;23.10;97.40
39493;DHT22;25176;51.060;3.720;2023-09-18T10:56:05;23.40;97.40
39493;DHT22;25176;51.060;3.720;2023-09-18T10:58:32;23.90;96.70
39493;DHT22;25176;51.060;3.720;2023-09-18T11:01:01;23.90;95.80
39493;DHT22;25176;51.060;3.720;2023-09-18T11:03:27;24.00;95.90
39493;DHT22;25176;51.060;3.720;2023-09-18T11:06:05;23.80;95.90
39493;DHT22;25176;51.060;3.720;2023-09-18T11:08:32;23.90;95.60
39493;DHT22;25176;51.060;3.720;2023-09-18T11:11:11;24.00;95.60
39493;DHT22;25176;51.060;3.720;2023-09-18T11:13:52;24.20;95.30
39493;DHT22;25176;51.060;3.720;2023-09-18T11:19:15;24.10;94.90
39493;DHT22;25176;51.060;3.720;2023-09-18T11:21:39;24.20;94.40
39493;DHT22;25176;51.060;3.720;2023-09-18T11:26:40;23.60;95.10
39493;DHT22;25176;51.060;3.720;2023-09-18T11:29:07;23.50;95.50
39493;DHT22;25176;51.060;3.720;2023-09-18T11:31:41;23.50;95.20
39493;DHT22;25176;51.060;3.720;2023-09-18T11:34:14;23.50;95.60
39493;DHT22;25176;51.060;3.720;2023-09-18T11:36:41;23.50;95.00
39493;DHT22;25176;51.060;3.720;2023-09-18T11:39:07;23.60;94.10
39493;DHT22;25176;51.060;3.720;2023-09-18T11:41:37;23.60;94.10
39493;DHT22;25176;51.060;3.720;2023-09-18T11:46:33;23.50;94.30
39493;DHT22;25176;51.060;3.720;2023-09-18T11:48:59;23.60;94.10
39493;DHT22;25176;51.060;3.720;2023-09-18T11:51:25;23.40;93.80
39493;DHT22;25176;51.060;3.720;2023-09-18T11:53:54;23.50;93.60
39493;DHT22;25176;51.060;3.720;2023-09-18T11:56:21;23.40;93.80
39493;DHT22;25176;51.060;3.720;2023-09-18T11:58:50;23.30;94.20
39493;DHT22;25176;51.060;3.720;2023-09-18T12:01:18;23.40;94.10
39493;DHT22;25176;51.060;3.720;2023-09-18T12:03:44;23.40;93.90
39493;DHT22;25176;51.060;3.720;2023-09-18T12:06:10;23.40;93.60
39493;DHT22;25176;51.060;3.720;2023-09-18T12:08:39;23.40;93.90
39493;DHT22;25176;51.060;3.720;2023-09-18T12:11:05;23.30;94.00
39493;DHT22;25176;51.060;3.720;2023-09-18T12:13:31;23.30;94.20
39493;DHT22;25176;51.060;3.720;2023-09-18T12:16:00;23.40;94.10
39493;DHT22;25176;51.060;3.720;2023-09-18T12:18:27;23.40;93.80
39493;DHT22;25176;51.060;3.720;2023-09-18T12:20:56;23.50;93.40
39493;DHT22;25176;51.060;3.720;2023-09-18T12:23:24;23.50;93.40
39493;DHT22;25176;51.060;3.720;2023-09-18T12:25:50;23.60;93.50
39493;DHT22;25176;51.060;3.720;2023-09-18T12:28:22;23.70;93.60
39493;DHT22;25176;51.060;3.720;2023-09-18T12:30:48;23.70;93.30
39493;DHT22;25176;51.060;3.720;2023-09-18T12:33:18;23.70;93.10
39493;DHT22;25176;51.060;3.720;2023-09-18T12:35:45;23.70;92.60
39493;DHT22;25176;51.060;3.720;2023-09-18T12:38:18;23.60;92.50
39493;DHT22;25176;51.060;3.720;2023-09-18T12:40:52;23.70;93.00
39493;DHT22;25176;51.060;3.720;2023-09-18T12:43:20;23.80;92.80
39493;DHT22;25176;51.060;3.720;2023-09-18T12:45:48;23.90;92.10
39493;DHT22;25176;51.060;3.720;2023-09-18T12:48:14;24.00;91.60
39493;DHT22;25176;51.060;3.720;2023-09-18T12:50:41;24.20;91.40
39493;DHT22;25176;51.060;3.720;2023-09-18T12:53:21;24.30;91.10
39493;DHT22;25176;51.060;3.720;2023-09-18T12:55:47;24.30;90.90
39493;DHT22;25176;51.060;3.720;2023-09-18T12:58:12;24.30;90.90
39493;DHT22;25176;51.060;3.720;2023-09-18T13:00:44;24.30;91.20
39493;DHT22;25176;51.060;3.720;2023-09-18T13:03:11;24.40;90.50
39493;DHT22;25176;51.060;3.720;2023-09-18T13:05:38;24.50;90.80
39493;DHT22;25176;51.060;3.720;2023-09-18T13:08:04;24.50;90.40
39493;DHT22;25176;51.060;3.720;2023-09-18T13:10:40;24.60;90.60
39493;DHT22;25176;51.060;3.720;2023-09-18T13:13:06;24.40;90.50
39493;DHT22;25176;51.060;3.720;2023-09-18T13:15:32;24.50;90.30
39493;DHT22;25176;51.060;3.720;2023-09-18T13:17:58;24.30;90.00
39493;DHT22;25176;51.060;3.720;2023-09-18T13:20:28;24.10;91.20
39493;DHT22;25176;51.060;3.720;2023-09-18T13:22:55;23.90;92.90
39493;DHT22;25176;51.060;3.720;2023-09-18T13:27:47;22.60;99.90
39493;DHT22;25176;51.060;3.720;2023-09-18T13:30:13;22.30;99.90
39493;DHT22;25176;51.060;3.720;2023-09-18T13:32:42;21.90;99.90
39493;DHT22;25176;51.060;3.720;2023-09-18T13:35:09;21.70;99.90
39493;DHT22;25176;51.060;3.720;2023-09-18T13:37:37;21.50;99.90
39493;DHT22;25176;51.060;3.720;2023-09-18T13:40:04;21.40;99.90
39493;DHT22;25176;51.060;3.720;2023-09-18T13:42:32;21.40;99.90
39493;DHT22;25176;51.060;3.720;2023-09-18T13:44:58;21.30;99.90
39493;DHT22;25176;51.060;3.720;2023-09-18T13:47:27;21.30;99.90
39493;DHT22;25176;51.060;3.720;2023-09-18T13:49:53;21.20;99.90
39493;DHT22;25176;51.060;3.720;2023-09-18T13:52:22;21.30;99.90
39493;DHT22;25176;51.060;3.720;2023-09-18T13:54:48;21.40;99.90
39493;DHT22;25176;51.060;3.720;2023-09-18T13:57:19;21.30;99.90
39493;DHT22;25176;51.060;3.720;2023-09-18T13:59:45;21.30;99.90
39493;DHT22;25176;51.060;3.720;2023-09-18T14:02:12;21.20;99.90
39493;DHT22;25176;51.060;3.720;2023-09-18T14:04:37;21.40;99.90
39493;DHT22;25176;51.060;3.720;2023-09-18T14:07:03;21.60;99.90
39493;DHT22;25176;51.060;3.720;2023-09-18T14:09:30;21.70;99.90
39493;DHT22;25176;51.060;3.720;2023-09-18T14:11:56;21.90;99.90
39493;DHT22;25176;51.060;3.720;2023-09-18T14:14:22;22.00;99.90
39493;DHT22;25176;51.060;3.720;2023-09-18T14:16:51;22.20;99.90
39493;DHT22;25176;51.060;3.720;2023-09-18T14:19:17;22.20;99.90
39493;DHT22;25176;51.060;3.720;2023-09-18T14:21:43;22.30;99.90
39493;DHT22;25176;51.060;3.720;2023-09-18T14:24:08;22.30;99.90
39493;DHT22;25176;51.060;3.720;2023-09-18T14:26:35;22.10;99.90
39493;DHT22;25176;51.060;3.720;2023-09-18T14:29:07;22.10;99.90
39493;DHT22;25176;51.060;3.720;2023-09-18T14:31:33;22.00;99.90
39493;DHT22;25176;51.060;3.720;2023-09-18T14:33:59;22.00;99.90
39493;DHT22;25176;51.060;3.720;2023-09-18T14:36:25;22.00;99.90
39493;DHT22;25176;51.060;3.720;2023-09-18T14:38:51;22.00;99.90
39493;DHT22;25176;51.060;3.720;2023-09-18T14:41:16;21.90;99.90
39493;DHT22;25176;51.060;3.720;2023-09-18T14:43:44;22.00;99.80
39493;DHT22;25176;51.060;3.720;2023-09-18T14:46:10;22.10;99.90
39493;DHT22;25176;51.060;3.720;2023-09-18T14:48:36;22.20;99.30
39493;DHT22;25176;51.060;3.720;2023-09-18T14:51:01;22.30;98.30
39493;DHT22;25176;51.060;3.720;2023-09-18T14:53:28;22.20;98.30
39493;DHT22;25176;51.060;3.720;2023-09-18T14:55:53;22.20;97.70
39493;DHT22;25176;51.060;3.720;2023-09-18T14:58:21;22.30;98.00
39493;DHT22;25176;51.060;3.720;2023-09-18T15:00:49;22.30;97.90
39493;DHT22;25176;51.060;3.720;2023-09-18T15:03:14;22.40;97.60
39493;DHT22;25176;51.060;3.720;2023-09-18T15:05:40;22.30;97.10
39493;DHT22;25176;51.060;3.720;2023-09-18T15:08:06;22.20;97.20
39493;DHT22;25176;51.060;3.720;2023-09-18T15:10:32;22.10;97.10
39493;DHT22;25176;51.060;3.720;2023-09-18T15:12:57;22.10;96.90
39493;DHT22;25176;51.060;3.720;2023-09-18T15:15:23;22.10;96.70
39493;DHT22;25176;51.060;3.720;2023-09-18T15:17:50;22.10;96.80
39493;DHT22;25176;51.060;3.720;2023-09-18T15:20:18;22.10;96.50
39493;DHT22;25176;51.060;3.720;2023-09-18T15:22:44;22.10;96.60
39493;DHT22;25176;51.060;3.720;2023-09-18T15:25:10;22.10;96.70
39493;DHT22;25176;51.060;3.720;2023-09-18T15:27:36;22.10;96.50
39493;DHT22;25176;51.060;3.720;2023-09-18T15:30:02;22.10;96.60
39493;DHT22;25176;51.060;3.720;2023-09-18T15:32:29;22.10;96.30
39493;DHT22;25176;51.060;3.720;2023-09-18T15:34:55;22.20;96.40
39493;DHT22;25176;51.060;3.720;2023-09-18T15:37:21;22.20;96.30
39493;DHT22;25176;51.060;3.720;2023-09-18T15:39:47;22.20;96.10
39493;DHT22;25176;51.060;3.720;2023-09-18T15:42:13;22.20;95.70
39493;DHT22;25176;51.060;3.720;2023-09-18T15:44:38;22.10;95.80
39493;DHT22;25176;51.060;3.720;2023-09-18T15:47:05;22.10;95.90
39493;DHT22;25176;51.060;3.720;2023-09-18T15:49:32;22.10;96.30
39493;DHT22;25176;51.060;3.720;2023-09-18T15:51:57;22.10;96.00